createdAt,value
2016-02-13T00:00:05.658Z,999.71
2016-02-13T00:00:46.457Z,999.67
2016-02-13T00:01:46.491Z,999.63
2016-02-13T00:02:46.509Z,999.66
2016-02-13T00:03:46.545Z,999.66
2016-02-13T00:04:59.313Z,999.67
2016-02-13T00:05:46.596Z,999.64
2016-02-13T00:06:46.631Z,999.68
2016-02-13T00:07:47.258Z,999.64
2016-02-13T00:08:46.683Z,999.66
2016-02-13T00:09:46.702Z,999.68
2016-02-13T00:10:46.737Z,999.71
2016-02-13T00:11:46.755Z,999.69
2016-02-13T00:12:46.789Z,999.67
2016-02-13T00:13:46.807Z,999.69
2016-02-13T00:14:47.450Z,999.74
2016-02-13T00:15:47.485Z,999.71
2016-02-13T00:16:50.613Z,999.7
2016-02-13T00:17:50.630Z,999.68
2016-02-13T00:18:50.667Z,999.67
2016-02-13T00:19:55.981Z,999.66
2016-02-13T00:20:56.015Z,999.66
2016-02-13T00:21:56.037Z,999.64
2016-02-13T00:22:56.070Z,999.69
2016-02-13T00:23:56.089Z,999.68
2016-02-13T00:25:08.857Z,999.7
2016-02-13T00:25:56.359Z,999.67
2016-02-13T00:27:15.379Z,999.7
2016-02-13T00:27:56.195Z,999.7
2016-02-13T00:28:56.229Z,999.65
2016-02-13T00:29:56.263Z,999.63
2016-02-13T00:30:56.281Z,999.68
2016-02-13T00:31:56.315Z,999.64
2016-02-13T00:32:56.333Z,999.63
2016-02-13T00:33:56.367Z,999.62
2016-02-13T00:34:56.385Z,999.62
2016-02-13T00:35:56.421Z,999.59
2016-02-13T00:37:15.657Z,999.57
2016-02-13T00:37:56.472Z,999.56
2016-02-13T00:38:56.491Z,999.53
2016-02-13T00:39:56.525Z,999.53
2016-02-13T00:40:56.559Z,999.49
2016-02-13T00:41:57.999Z,999.52
2016-02-13T00:42:56.596Z,999.53
2016-02-13T00:44:15.850Z,999.52
2016-02-13T00:44:56.664Z,999.58
2016-02-13T00:46:22.357Z,999.59
2016-02-13T00:46:57.310Z,999.61
2016-02-13T00:47:56.735Z,999.61
2016-02-13T00:48:56.769Z,999.58
2016-02-13T00:49:56.818Z,999.59
2016-02-13T00:50:57.415Z,999.58
2016-02-13T00:51:57.465Z,999.57
2016-02-13T00:53:09.608Z,999.55
2016-02-13T00:54:09.631Z,999.53
2016-02-13T00:55:22.604Z,999.54
2016-02-13T00:56:16.156Z,999.56
2016-02-13T00:58:22.681Z,999.54
2016-02-13T00:58:57.025Z,999.53
2016-02-13T00:59:57.058Z,999.54
2016-02-13T01:01:00.123Z,999.49
2016-02-13T01:01:57.113Z,999.51
2016-02-13T01:03:16.350Z,999.48
2016-02-13T01:04:00.400Z,999.43
2016-02-13T01:05:00.418Z,999.45
2016-02-13T01:06:00.452Z,999.45
2016-02-13T01:07:00.471Z,999.44
2016-02-13T01:08:00.489Z,999.41
2016-02-13T01:09:00.539Z,999.39
2016-02-13T01:10:00.541Z,999.41
2016-02-13T01:11:00.575Z,999.41
2016-02-13T01:12:00.609Z,999.36
2016-02-13T01:13:26.303Z,999.37
2016-02-13T01:14:00.662Z,999.38
2016-02-13T01:15:00.695Z,999.36
2016-02-13T01:16:06.979Z,999.33
2016-02-13T01:17:00.747Z,999.31
2016-02-13T01:18:13.507Z,999.33
2016-02-13T01:19:01.400Z,999.33
2016-02-13T01:20:00.826Z,999.29
2016-02-13T01:21:13.578Z,999.31
2016-02-13T01:22:13.597Z,999.28
2016-02-13T01:23:00.897Z,999.26
2016-02-13T01:24:29.668Z,999.28
2016-02-13T01:25:27.108Z,999.22
2016-02-13T01:26:36.674Z,999.22
2016-02-13T01:27:36.707Z,999.18
2016-02-13T01:28:36.726Z,999.14
2016-02-13T01:29:36.744Z,999.14
2016-02-13T01:30:49.529Z,999.11
2016-02-13T01:31:36.813Z,999.12
2016-02-13T01:32:36.831Z,999.15
2016-02-13T01:33:36.866Z,999.13
2016-02-13T01:34:36.884Z,999.17
2016-02-13T01:35:56.121Z,999.14
2016-02-13T01:36:36.952Z,999.16
2016-02-13T01:37:36.969Z,999.12
2016-02-13T01:38:36.988Z,999.13
2016-02-13T01:39:37.023Z,999.15
2016-02-13T01:40:37.057Z,999.12
2016-02-13T01:41:37.075Z,999.07
2016-02-13T01:42:37.719Z,999.08
2016-02-13T01:44:02.800Z,999.07
2016-02-13T01:44:37.162Z,999.06
2016-02-13T01:45:37.196Z,999.05
2016-02-13T01:46:52.370Z,999.05
2016-02-13T01:47:52.404Z,999.01
2016-02-13T01:48:52.423Z,999
2016-02-13T01:49:52.457Z,999.01
2016-02-13T01:50:52.475Z,999.01
2016-02-13T01:51:52.494Z,998.97
2016-02-13T01:52:52.528Z,999
2016-02-13T01:54:05.283Z,998.98
2016-02-13T01:54:52.583Z,998.96
2016-02-13T01:55:52.601Z,998.97
2016-02-13T01:56:52.637Z,998.94
2016-02-13T01:58:18.342Z,998.93
2016-02-13T01:58:56.579Z,998.91
2016-02-13T01:59:56.598Z,998.9
2016-02-13T02:00:56.647Z,998.89
2016-02-13T02:01:56.665Z,998.87
2016-02-13T02:02:56.684Z,998.91
2016-02-13T02:04:15.921Z,998.88
2016-02-13T02:04:56.737Z,998.91
2016-02-13T02:05:56.772Z,998.9
2016-02-13T02:06:56.791Z,998.89
2016-02-13T02:07:56.809Z,998.9
2016-02-13T02:09:24.720Z,998.89
2016-02-13T02:10:24.754Z,998.9
2016-02-13T02:11:24.788Z,998.89
2016-02-13T02:12:24.806Z,998.93
2016-02-13T02:13:24.841Z,998.92
2016-02-13T02:14:24.858Z,998.95
2016-02-13T02:15:24.893Z,998.92
2016-02-13T02:16:24.911Z,998.92
2016-02-13T02:17:24.945Z,998.93
2016-02-13T02:18:25.573Z,998.92
2016-02-13T02:19:24.997Z,998.85
2016-02-13T02:20:25.624Z,998.82
2016-02-13T02:21:25.659Z,998.82
2016-02-13T02:22:25.068Z,998.8
2016-02-13T02:23:25.105Z,998.78
2016-02-13T02:24:25.123Z,998.84
2016-02-13T02:25:25.156Z,998.84
2016-02-13T02:26:25.192Z,998.87
2016-02-13T02:27:25.210Z,998.86
2016-02-13T02:28:25.244Z,998.85
2016-02-13T02:29:37.997Z,998.83
2016-02-13T02:30:25.890Z,998.79
2016-02-13T02:31:25.315Z,998.82
2016-02-13T02:32:25.349Z,998.83
2016-02-13T02:33:25.383Z,998.84
2016-02-13T02:34:25.401Z,998.78
2016-02-13T02:35:25.622Z,998.78
2016-02-13T02:36:31.719Z,998.8
2016-02-13T02:37:25.469Z,998.77
2016-02-13T02:38:31.771Z,998.78
2016-02-13T02:39:25.521Z,998.76
2016-02-13T02:40:31.823Z,998.74
2016-02-13T02:41:25.573Z,998.77
2016-02-13T02:42:25.606Z,998.79
2016-02-13T02:43:25.628Z,998.78
2016-02-13T02:44:25.677Z,998.79
2016-02-13T02:45:25.680Z,998.75
2016-02-13T02:46:31.982Z,998.74
2016-02-13T02:47:32.000Z,998.71
2016-02-13T02:48:25.766Z,998.67
2016-02-13T02:49:25.800Z,998.71
2016-02-13T02:50:25.833Z,998.7
2016-02-13T02:51:45.058Z,998.69
2016-02-13T02:52:25.871Z,998.63
2016-02-13T02:53:51.580Z,998.64
2016-02-13T02:54:35.489Z,998.67
2016-02-13T02:56:01.180Z,998.62
2016-02-13T02:56:45.043Z,998.61
2016-02-13T02:57:45.061Z,998.59
2016-02-13T02:58:45.096Z,998.59
2016-02-13T02:59:45.113Z,998.58
2016-02-13T03:00:45.148Z,998.55
2016-02-13T03:01:45.182Z,998.55
2016-02-13T03:02:45.217Z,998.55
2016-02-13T03:03:45.236Z,998.59
2016-02-13T03:04:45.253Z,998.58
2016-02-13T03:05:45.286Z,998.54
2016-02-13T03:07:04.508Z,998.58
2016-02-13T03:07:58.074Z,998.6
2016-02-13T03:08:45.358Z,998.66
2016-02-13T03:10:11.065Z,998.69
2016-02-13T03:12:14.148Z,998.71
2016-02-13T03:12:58.041Z,998.72
2016-02-13T03:14:17.279Z,998.68
2016-02-13T03:15:04.253Z,998.7
2016-02-13T03:16:01.239Z,998.64
2016-02-13T03:17:01.273Z,998.65
2016-02-13T03:18:14.044Z,998.61
2016-02-13T03:19:01.327Z,998.61
2016-02-13T03:20:01.363Z,998.55
2016-02-13T03:21:01.387Z,998.53
2016-02-13T03:22:01.406Z,998.52
2016-02-13T03:23:01.439Z,998.52
2016-02-13T03:24:01.457Z,998.51
2016-02-13T03:25:01.491Z,998.54
2016-02-13T03:26:01.605Z,998.56
2016-02-13T03:27:02.140Z,998.6
2016-02-13T03:28:01.564Z,998.54
2016-02-13T03:29:01.598Z,998.55
2016-02-13T03:30:01.616Z,998.52
2016-02-13T03:31:01.854Z,998.48
2016-02-13T03:32:01.669Z,998.46
2016-02-13T03:33:01.906Z,998.5
2016-02-13T03:34:01.721Z,998.49
2016-02-13T03:35:01.755Z,998.49
2016-02-13T03:36:14.508Z,998.51
2016-02-13T03:37:01.808Z,998.51
2016-02-13T03:38:01.826Z,998.53
2016-02-13T03:39:01.860Z,998.51
2016-02-13T03:40:01.894Z,998.51
2016-02-13T03:41:01.928Z,998.48
2016-02-13T03:42:01.942Z,998.54
2016-02-13T03:43:01.949Z,998.51
2016-02-13T03:44:01.970Z,998.48
2016-02-13T03:45:01.991Z,998.44
2016-02-13T03:46:01.999Z,998.42
2016-02-13T03:47:02.009Z,998.44
2016-02-13T03:48:02.040Z,998.43
2016-02-13T03:49:14.819Z,998.44
2016-02-13T03:50:02.082Z,998.47
2016-02-13T03:51:21.316Z,998.43
2016-02-13T03:52:27.815Z,998.44
2016-02-13T03:53:02.161Z,998.42
2016-02-13T03:55:02.209Z,998.37
2016-02-13T03:56:02.226Z,998.35
2016-02-13T03:57:02.258Z,998.35
2016-02-13T03:58:02.277Z,998.35
2016-02-13T03:59:02.311Z,998.35
2016-02-13T04:00:02.328Z,998.34
2016-02-13T04:01:02.361Z,998.4
2016-02-13T04:02:05.426Z,998.43
2016-02-13T04:03:05.444Z,998.44
2016-02-13T04:04:05.478Z,998.41
2016-02-13T04:05:05.498Z,998.38
2016-02-13T04:06:05.531Z,998.38
2016-02-13T04:07:05.569Z,998.38
2016-02-13T04:08:05.593Z,998.38
2016-02-13T04:09:15.586Z,998.38
2016-02-13T04:10:05.688Z,998.38
2016-02-13T04:12:15.193Z,998.35
2016-02-13T04:13:15.227Z,998.35
2016-02-13T04:14:27.979Z,998.35
2016-02-13T04:15:15.263Z,998.34
2016-02-13T04:16:15.299Z,998.32
2016-02-13T04:17:15.332Z,998.31
2016-02-13T04:18:15.349Z,998.3
2016-02-13T04:19:15.389Z,998.28
2016-02-13T04:20:28.142Z,998.3
2016-02-13T04:21:15.504Z,998.3
2016-02-13T04:22:34.662Z,998.26
2016-02-13T04:23:15.540Z,998.27
2016-02-13T04:24:15.512Z,998.25
2016-02-13T04:25:15.546Z,998.26
2016-02-13T04:26:15.579Z,998.27
2016-02-13T04:27:15.598Z,998.26
2016-02-13T04:28:28.350Z,998.25
2016-02-13T04:29:15.648Z,998.22
2016-02-13T04:30:15.681Z,998.27
2016-02-13T04:31:15.700Z,998.27
2016-02-13T04:32:15.719Z,998.22
2016-02-13T04:33:15.957Z,998.22
2016-02-13T04:34:22.099Z,998.23
2016-02-13T04:35:15.821Z,998.16
2016-02-13T04:36:15.840Z,998.16
2016-02-13T04:37:22.123Z,998.17
2016-02-13T04:38:15.892Z,998.15
2016-02-13T04:39:15.911Z,998.13
2016-02-13T04:40:15.946Z,998.14
2016-02-13T04:41:15.963Z,998.13
2016-02-13T04:42:15.998Z,998.13
2016-02-13T04:43:16.033Z,998.08
2016-02-13T04:44:16.051Z,998.08
2016-02-13T04:45:16.069Z,998.08
2016-02-13T04:46:16.103Z,998.08
2016-02-13T04:47:22.386Z,998.08
2016-02-13T04:48:35.361Z,998.06
2016-02-13T04:49:16.191Z,998.09
2016-02-13T04:50:16.210Z,998.07
2016-02-13T04:51:16.245Z,998.1
2016-02-13T04:52:16.279Z,998.07
2016-02-13T04:53:16.281Z,998.03
2016-02-13T04:54:16.317Z,998.01
2016-02-13T04:55:16.350Z,998.04
2016-02-13T04:56:16.384Z,998.03
2016-02-13T04:57:16.402Z,998.04
2016-02-13T04:58:16.422Z,998.01
2016-02-13T04:59:16.456Z,998
2016-02-13T05:00:16.476Z,998.02
2016-02-13T05:01:16.509Z,998.01
2016-02-13T05:02:17.137Z,997.97
2016-02-13T05:03:16.561Z,997.99
2016-02-13T05:04:16.581Z,997.97
2016-02-13T05:05:16.614Z,998.01
2016-02-13T05:06:16.633Z,998.01
2016-02-13T05:07:16.666Z,997.97
2016-02-13T05:08:16.703Z,997.98
2016-02-13T05:09:16.722Z,997.96
2016-02-13T05:10:16.958Z,997.94
2016-02-13T05:11:29.508Z,997.92
2016-02-13T05:12:29.527Z,997.91
2016-02-13T05:13:16.826Z,997.9
2016-02-13T05:14:16.844Z,997.91
2016-02-13T05:15:45.644Z,997.95
2016-02-13T05:16:23.912Z,997.96
2016-02-13T05:17:23.932Z,997.92
2016-02-13T05:18:23.966Z,997.92
2016-02-13T05:19:23.985Z,997.93
2016-02-13T05:20:24.018Z,997.93
2016-02-13T05:21:24.038Z,997.92
2016-02-13T05:22:24.071Z,997.93
2016-02-13T05:23:36.824Z,997.93
2016-02-13T05:24:30.390Z,997.91
2016-02-13T05:25:43.348Z,997.92
2016-02-13T05:26:24.179Z,997.87
2016-02-13T05:27:24.197Z,997.84
2016-02-13T05:28:43.434Z,997.81
2016-02-13T05:29:24.251Z,997.79
2016-02-13T05:30:49.960Z,997.78
2016-02-13T05:31:24.320Z,997.78
2016-02-13T05:32:24.337Z,997.75
2016-02-13T05:33:25.779Z,997.74
2016-02-13T05:34:24.378Z,997.72
2016-02-13T05:35:24.412Z,997.75
2016-02-13T05:36:43.648Z,997.74
2016-02-13T05:37:24.464Z,997.73
2016-02-13T05:38:24.498Z,997.68
2016-02-13T05:39:37.251Z,997.71
2016-02-13T05:40:25.159Z,997.72
2016-02-13T05:41:24.600Z,997.71
2016-02-13T05:42:27.680Z,997.7
2016-02-13T05:43:53.358Z,997.65
2016-02-13T05:44:37.264Z,997.63
2016-02-13T05:45:56.503Z,997.62
2016-02-13T05:46:38.738Z,997.6
2016-02-13T05:47:37.335Z,997.61
2016-02-13T05:48:37.369Z,997.62
2016-02-13T05:50:03.077Z,997.61
2016-02-13T05:50:46.968Z,997.58
2016-02-13T05:51:56.645Z,997.59
2016-02-13T05:53:22.352Z,997.58
2016-02-13T05:54:00.604Z,997.58
2016-02-13T05:56:15.783Z,997.53
2016-02-13T05:57:15.801Z,997.52
2016-02-13T05:58:15.834Z,997.51
2016-02-13T05:59:18.915Z,997.52
2016-02-13T06:00:18.936Z,997.5
2016-02-13T06:01:22.064Z,997.52
2016-02-13T06:02:22.097Z,997.48
2016-02-13T06:03:22.116Z,997.51
2016-02-13T06:04:22.133Z,997.52
2016-02-13T06:05:22.262Z,997.53
2016-02-13T06:06:35.030Z,997.54
2016-02-13T06:07:22.283Z,997.57
2016-02-13T06:08:22.302Z,997.56
2016-02-13T06:09:22.274Z,997.56
2016-02-13T06:10:23.731Z,997.57
2016-02-13T06:11:28.217Z,997.56
2016-02-13T06:12:26.831Z,997.53
2016-02-13T06:14:42.071Z,997.63
2016-02-13T06:15:42.105Z,997.64
2016-02-13T06:16:57.923Z,997.6
2016-02-13T06:18:10.878Z,997.59
2016-02-13T06:18:45.238Z,997.57
2016-02-13T06:19:48.350Z,997.52
2016-02-13T06:20:51.509Z,997.52
2016-02-13T06:23:04.111Z,997.55
2016-02-13T06:24:04.144Z,997.54
2016-02-13T06:25:04.179Z,997.55
2016-02-13T06:26:04.197Z,997.57
2016-02-13T06:27:04.232Z,997.61
2016-02-13T06:28:04.250Z,997.61
2016-02-13T06:29:04.283Z,997.63
2016-02-13T06:30:04.306Z,997.64
2016-02-13T06:31:04.339Z,997.68
2016-02-13T06:32:04.374Z,997.62
2016-02-13T06:33:04.391Z,997.62
2016-02-13T06:34:04.411Z,997.63
2016-02-13T06:35:04.444Z,997.63
2016-02-13T06:36:04.463Z,997.62
2016-02-13T06:37:04.496Z,997.58
2016-02-13T06:38:04.515Z,997.54
2016-02-13T06:39:04.551Z,997.5
2016-02-13T06:40:04.585Z,997.52
2016-02-13T06:41:04.603Z,997.51
2016-02-13T06:42:04.621Z,997.47
2016-02-13T06:43:04.654Z,997.51
2016-02-13T06:44:04.674Z,997.49
2016-02-13T06:45:04.707Z,997.47
2016-02-13T06:46:04.742Z,997.48
2016-02-13T06:47:04.761Z,997.48
2016-02-13T06:48:04.795Z,997.49
2016-02-13T06:49:04.814Z,997.5
2016-02-13T06:50:04.848Z,997.5
2016-02-13T06:51:04.866Z,997.51
2016-02-13T06:52:04.900Z,997.5
2016-02-13T06:53:04.933Z,997.5
2016-02-13T06:54:04.952Z,997.5
2016-02-13T06:55:04.971Z,997.51
2016-02-13T06:56:05.006Z,997.54
2016-02-13T06:57:05.039Z,997.53
2016-02-13T06:58:05.058Z,997.57
2016-02-13T06:59:05.092Z,997.57
2016-02-13T07:00:05.125Z,997.57
2016-02-13T07:01:05.144Z,997.62
2016-02-13T07:02:05.180Z,997.65
2016-02-13T07:03:05.198Z,997.67
2016-02-13T07:04:05.216Z,997.66
2016-02-13T07:05:05.250Z,997.65
2016-02-13T07:06:05.269Z,997.68
2016-02-13T07:07:05.303Z,997.69
2016-02-13T07:08:05.321Z,997.7
2016-02-13T07:09:05.355Z,997.73
2016-02-13T07:10:05.389Z,997.72
2016-02-13T07:11:05.407Z,997.74
2016-02-13T07:12:05.441Z,997.69
2016-02-13T07:13:05.459Z,997.67
2016-02-13T07:14:05.495Z,997.67
2016-02-13T07:15:05.530Z,997.67
2016-02-13T07:16:05.547Z,997.62
2016-02-13T07:17:05.582Z,997.63
2016-02-13T07:18:05.600Z,997.58
2016-02-13T07:19:05.619Z,997.61
2016-02-13T07:20:05.653Z,997.61
2016-02-13T07:21:05.672Z,997.57
2016-02-13T07:22:05.752Z,997.55
2016-02-13T07:23:05.739Z,997.57
2016-02-13T07:24:05.758Z,997.59
2016-02-13T07:25:05.792Z,997.58
2016-02-13T07:26:05.810Z,997.56
2016-02-13T07:27:05.844Z,997.58
2016-02-13T07:28:05.877Z,997.52
2016-02-13T07:29:05.897Z,997.56
2016-02-13T07:30:05.946Z,997.57
2016-02-13T07:31:05.950Z,997.55
2016-02-13T07:32:05.984Z,997.61
2016-02-13T07:33:06.006Z,997.59
2016-02-13T07:34:06.024Z,997.56
2016-02-13T07:35:06.059Z,997.57
2016-02-13T07:36:06.092Z,997.54
2016-02-13T07:37:06.111Z,997.59
2016-02-13T07:38:06.144Z,997.57
2016-02-13T07:39:06.163Z,997.55
2016-02-13T07:40:06.196Z,997.58
2016-02-13T07:41:06.216Z,997.56
2016-02-13T07:42:06.250Z,997.58
2016-02-13T07:43:06.269Z,997.5
2016-02-13T07:44:06.302Z,997.48
2016-02-13T07:45:06.337Z,997.45
2016-02-13T07:46:06.355Z,997.43
2016-02-13T07:47:06.389Z,997.42
2016-02-13T07:48:06.408Z,997.42
2016-02-13T07:49:06.441Z,997.41
2016-02-13T07:50:06.475Z,997.41
2016-02-13T07:51:06.496Z,997.38
2016-02-13T07:52:06.513Z,997.4
2016-02-13T07:53:06.548Z,997.4
2016-02-13T07:54:06.566Z,997.39
2016-02-13T07:55:06.600Z,997.42
2016-02-13T07:56:06.634Z,997.43
2016-02-13T07:57:06.668Z,997.4
2016-02-13T07:58:06.686Z,997.36
2016-02-13T07:59:06.704Z,997.36
2016-02-13T08:00:06.739Z,997.38
2016-02-13T08:01:06.757Z,997.37
2016-02-13T08:02:06.795Z,997.41
2016-02-13T08:03:06.814Z,997.37
2016-02-13T08:04:06.848Z,997.39
2016-02-13T08:05:06.875Z,997.39
2016-02-13T08:06:06.912Z,997.41
2016-02-13T08:07:06.929Z,997.41
2016-02-13T08:08:06.965Z,997.41
2016-02-13T08:09:06.982Z,997.45
2016-02-13T08:10:07.016Z,997.46
2016-02-13T08:11:07.034Z,997.47
2016-02-13T08:12:07.068Z,997.44
2016-02-13T08:13:07.103Z,997.42
2016-02-13T08:14:07.121Z,997.41
2016-02-13T08:15:07.154Z,997.4
2016-02-13T08:16:07.173Z,997.43
2016-02-13T08:17:07.206Z,997.39
2016-02-13T08:18:07.227Z,997.39
2016-02-13T08:19:07.261Z,997.38
2016-02-13T08:20:07.295Z,997.35
2016-02-13T08:21:07.314Z,997.36
2016-02-13T08:22:07.333Z,997.28
2016-02-13T08:23:07.366Z,997.3
2016-02-13T08:24:07.478Z,997.26
2016-02-13T08:25:07.419Z,997.25
2016-02-13T08:26:07.502Z,997.27
2016-02-13T08:27:07.489Z,997.24
2016-02-13T08:28:07.507Z,997.26
2016-02-13T08:29:07.527Z,997.27
2016-02-13T08:30:07.562Z,997.24
2016-02-13T08:31:07.581Z,997.25
2016-02-13T08:32:07.615Z,997.25
2016-02-13T08:33:07.650Z,997.23
2016-02-13T08:34:07.667Z,997.23
2016-02-13T08:35:07.735Z,997.22
2016-02-13T08:36:07.722Z,997.23
2016-02-13T08:37:07.793Z,997.26
2016-02-13T08:38:07.779Z,997.22
2016-02-13T08:39:07.797Z,997.23
2016-02-13T08:40:07.831Z,997.23
2016-02-13T08:41:07.881Z,997.22
2016-02-13T08:42:07.899Z,997.22
2016-02-13T08:43:07.918Z,997.26
2016-02-13T08:44:07.937Z,997.25
2016-02-13T08:45:07.972Z,997.29
2016-02-13T08:46:08.006Z,997.25
2016-02-13T08:47:08.025Z,997.28
2016-02-13T08:48:08.043Z,997.28
2016-02-13T08:49:08.077Z,997.26
2016-02-13T08:50:08.111Z,997.27
2016-02-13T08:51:08.129Z,997.24
2016-02-13T08:52:08.163Z,997.23
2016-02-13T08:53:08.181Z,997.17
2016-02-13T08:54:08.215Z,997.19
2016-02-13T08:55:08.234Z,997.13
2016-02-13T08:56:21.019Z,997.12
2016-02-13T08:57:08.288Z,997.09
2016-02-13T08:58:08.321Z,997.07
2016-02-13T08:59:08.356Z,997.01
2016-02-13T09:00:08.390Z,997.01
2016-02-13T09:01:08.408Z,996.97
2016-02-13T09:02:08.442Z,996.92
2016-02-13T09:03:08.464Z,996.86
2016-02-13T09:04:08.484Z,996.86
2016-02-13T09:05:08.518Z,996.84
2016-02-13T09:06:08.551Z,996.85
2016-02-13T09:07:08.570Z,996.83
2016-02-13T09:08:08.603Z,996.81
2016-02-13T09:09:08.622Z,996.84
2016-02-13T09:10:08.687Z,996.83
2016-02-13T09:11:08.675Z,996.81
2016-02-13T09:12:08.708Z,996.82
2016-02-13T09:13:15.009Z,996.84
2016-02-13T09:14:15.042Z,996.82
2016-02-13T09:15:08.796Z,996.84
2016-02-13T09:16:08.814Z,996.82
2016-02-13T09:17:08.848Z,996.8
2016-02-13T09:18:08.881Z,996.83
2016-02-13T09:19:08.915Z,996.82
2016-02-13T09:20:08.934Z,996.8
2016-02-13T09:21:21.687Z,996.81
2016-02-13T09:22:08.987Z,996.76
2016-02-13T09:23:09.004Z,996.78
2016-02-13T09:24:09.039Z,996.73
2016-02-13T09:25:09.072Z,996.78
2016-02-13T09:26:09.700Z,996.8
2016-02-13T09:27:21.859Z,996.78
2016-02-13T09:28:21.893Z,996.77
2016-02-13T09:29:28.380Z,996.78
2016-02-13T09:30:28.399Z,996.72
2016-02-13T09:32:12.298Z,996.76
2016-02-13T09:33:12.333Z,996.72
2016-02-13T09:34:27.633Z,996.7
2016-02-13T09:35:27.588Z,996.65
2016-02-13T09:36:27.622Z,996.6
2016-02-13T09:37:42.813Z,996.63
2016-02-13T09:38:42.846Z,996.6
2016-02-13T09:39:55.443Z,996.6
2016-02-13T09:40:52.446Z,996.63
2016-02-13T09:41:52.464Z,996.65
2016-02-13T09:42:52.513Z,996.66
2016-02-13T09:43:52.532Z,996.65
2016-02-13T09:44:52.550Z,996.59
2016-02-13T09:45:52.585Z,996.56
2016-02-13T09:46:58.868Z,996.55
2016-02-13T09:47:52.639Z,996.5
2016-02-13T09:48:52.813Z,996.42
2016-02-13T09:50:18.458Z,996.47
2016-02-13T09:50:52.819Z,996.46
2016-02-13T09:53:08.015Z,996.42
2016-02-13T09:54:08.049Z,996.41
2016-02-13T09:55:08.083Z,996.38
2016-02-13T09:56:23.320Z,996.38
2016-02-13T09:57:23.322Z,996.33
2016-02-13T09:58:36.075Z,996.3
2016-02-13T09:59:23.390Z,996.31
2016-02-13T10:00:23.410Z,996.24
2016-02-13T10:01:23.429Z,996.27
2016-02-13T10:02:24.093Z,996.25
2016-02-13T10:03:23.502Z,996.24
2016-02-13T10:04:23.520Z,996.23
2016-02-13T10:05:23.554Z,996.19
2016-02-13T10:06:23.572Z,996.14
2016-02-13T10:07:23.607Z,996.1
2016-02-13T10:08:23.641Z,996.09
2016-02-13T10:09:36.410Z,996.06
2016-02-13T10:10:23.678Z,996.03
2016-02-13T10:11:23.712Z,996.01
2016-02-13T10:12:23.730Z,995.99
2016-02-13T10:13:23.779Z,995.92
2016-02-13T10:14:36.516Z,995.96
2016-02-13T10:15:23.816Z,995.95
2016-02-13T10:16:43.054Z,995.97
2016-02-13T10:17:30.150Z,995.85
2016-02-13T10:19:39.094Z,995.82
2016-02-13T10:20:39.144Z,995.8
2016-02-13T10:21:39.161Z,995.81
2016-02-13T10:22:51.913Z,995.82
2016-02-13T10:23:39.213Z,995.82
2016-02-13T10:24:51.982Z,995.81
2016-02-13T10:25:39.267Z,995.75
2016-02-13T10:26:58.503Z,995.78
2016-02-13T10:27:52.054Z,995.76
2016-02-13T10:29:54.528Z,995.79
2016-02-13T10:31:20.236Z,995.81
2016-02-13T10:32:07.161Z,995.78
2016-02-13T10:33:10.290Z,995.71
2016-02-13T10:34:19.871Z,995.78
2016-02-13T10:35:45.577Z,995.78
2016-02-13T10:36:19.924Z,995.75
2016-02-13T10:37:19.942Z,995.78
2016-02-13T10:38:19.976Z,995.75
2016-02-13T10:40:20.028Z,995.77
2016-02-13T10:41:20.062Z,995.76
2016-02-13T10:42:20.080Z,995.73
2016-02-13T10:43:23.195Z,995.76
2016-02-13T10:44:23.213Z,995.74
2016-02-13T10:46:38.437Z,995.64
2016-02-13T10:47:38.456Z,995.59
2016-02-13T10:48:41.567Z,995.58
2016-02-13T10:49:41.586Z,995.57
2016-02-13T10:50:41.621Z,995.59
2016-02-13T10:51:51.280Z,995.62
2016-02-13T10:52:51.299Z,995.63
2016-02-13T10:54:04.067Z,995.66
2016-02-13T10:54:51.961Z,995.65
2016-02-13T10:56:17.076Z,995.69
2016-02-13T10:57:01.201Z,995.7
2016-02-13T10:58:26.894Z,995.7
2016-02-13T10:59:10.772Z,995.64
2016-02-13T11:00:36.477Z,995.63
2016-02-13T11:01:20.339Z,995.62
2016-02-13T11:02:39.564Z,995.55
2016-02-13T11:03:23.662Z,995.56
2016-02-13T11:04:23.695Z,995.54
2016-02-13T11:05:23.731Z,995.44
2016-02-13T11:06:36.483Z,995.45
2016-02-13T11:07:23.781Z,995.44
2016-02-13T11:08:23.801Z,995.45
2016-02-13T11:09:23.850Z,995.39
2016-02-13T11:10:23.853Z,995.35
2016-02-13T11:11:30.167Z,995.39
2016-02-13T11:12:23.922Z,995.33
2016-02-13T11:13:43.143Z,995.29
2016-02-13T11:14:23.974Z,995.3
2016-02-13T11:15:23.993Z,995.22
2016-02-13T11:16:36.777Z,995.18
2016-02-13T11:17:24.060Z,995.18
2016-02-13T11:18:24.094Z,995.2
2016-02-13T11:19:24.112Z,995.21
2016-02-13T11:20:24.147Z,995.15
2016-02-13T11:21:24.183Z,995.15
2016-02-13T11:22:24.200Z,995.11
2016-02-13T11:23:24.219Z,995.09
2016-02-13T11:24:24.253Z,995.05
2016-02-13T11:25:24.287Z,995.07
2016-02-13T11:26:24.305Z,995.06
2016-02-13T11:27:24.339Z,995.02
2016-02-13T11:28:24.357Z,995
2016-02-13T11:29:24.391Z,995.04
2016-02-13T11:30:24.426Z,994.99
2016-02-13T11:31:24.444Z,995.02
2016-02-13T11:32:24.478Z,994.97
2016-02-13T11:33:24.499Z,994.97
2016-02-13T11:34:24.532Z,994.97
2016-02-13T11:35:24.566Z,994.97
2016-02-13T11:36:24.585Z,994.95
2016-02-13T11:37:24.603Z,994.92
2016-02-13T11:38:24.654Z,994.9
2016-02-13T11:39:24.657Z,994.89
2016-02-13T11:40:24.690Z,994.82
2016-02-13T11:41:24.724Z,994.83
2016-02-13T11:42:24.758Z,994.79
2016-02-13T11:43:24.777Z,994.8
2016-02-13T11:44:24.811Z,994.75
2016-02-13T11:45:24.830Z,994.72
2016-02-13T11:46:24.863Z,994.69
2016-02-13T11:47:24.883Z,994.65
2016-02-13T11:48:24.917Z,994.64
2016-02-13T11:49:24.936Z,994.68
2016-02-13T11:50:24.969Z,994.61
2016-02-13T11:51:25.003Z,994.6
2016-02-13T11:52:25.022Z,994.59
2016-02-13T11:53:25.071Z,994.59
2016-02-13T11:54:25.089Z,994.55
2016-02-13T11:55:25.108Z,994.55
2016-02-13T11:56:25.143Z,994.53
2016-02-13T11:57:25.162Z,994.51
2016-02-13T11:58:25.195Z,994.48
2016-02-13T11:59:25.230Z,994.44
2016-02-13T12:00:25.249Z,994.43
2016-02-13T12:01:25.330Z,994.43
2016-02-13T12:02:25.301Z,994.41
2016-02-13T12:03:25.321Z,994.43
2016-02-13T12:04:25.355Z,994.38
2016-02-13T12:05:25.378Z,994.4
2016-02-13T12:06:25.412Z,994.35
2016-02-13T12:07:25.431Z,994.32
2016-02-13T12:08:25.464Z,994.32
2016-02-13T12:09:25.498Z,994.3
2016-02-13T12:10:25.611Z,994.29
2016-02-13T12:11:25.550Z,994.29
2016-02-13T12:12:25.584Z,994.3
2016-02-13T12:13:25.604Z,994.24
2016-02-13T12:14:25.622Z,994.25
2016-02-13T12:15:25.656Z,994.24
2016-02-13T12:16:25.676Z,994.28
2016-02-13T12:17:25.710Z,994.2
2016-02-13T12:18:25.744Z,994.2
2016-02-13T12:19:25.778Z,994.21
2016-02-13T12:20:25.796Z,994.21
2016-02-13T12:21:25.877Z,994.12
2016-02-13T12:22:25.865Z,994.14
2016-02-13T12:23:25.883Z,994.12
2016-02-13T12:24:25.902Z,994.09
2016-02-13T12:25:25.933Z,994.11
2016-02-13T12:26:25.951Z,994.12
2016-02-13T12:27:25.985Z,994.1
2016-02-13T12:28:26.022Z,994.05
2016-02-13T12:29:26.041Z,994.05
2016-02-13T12:30:26.074Z,994.01
2016-02-13T12:31:26.092Z,994
2016-02-13T12:32:26.129Z,993.99
2016-02-13T12:33:26.162Z,994.02
2016-02-13T12:34:26.181Z,993.99
2016-02-13T12:35:26.215Z,993.99
2016-02-13T12:36:26.233Z,994.01
2016-02-13T12:37:26.268Z,994.01
2016-02-13T12:38:26.285Z,993.98
2016-02-13T12:39:26.320Z,993.99
2016-02-13T12:40:26.337Z,993.93
2016-02-13T12:41:26.371Z,993.94
2016-02-13T12:42:26.390Z,993.92
2016-02-13T12:43:26.425Z,993.89
2016-02-13T12:44:26.476Z,993.9
2016-02-13T12:45:26.495Z,993.85
2016-02-13T12:46:26.512Z,993.83
2016-02-13T12:47:26.546Z,993.83
2016-02-13T12:48:26.549Z,993.79
2016-02-13T12:49:26.568Z,993.8
2016-02-13T12:50:26.588Z,993.76